createdAt,value
2023-01-31T00:01:43.968Z,7.33
2023-01-31T00:04:33.029Z,8.03
2023-01-31T00:07:25.076Z,6.70
2023-01-31T00:10:14.220Z,6.60
2023-01-31T00:13:03.020Z,6.90
2023-01-31T00:15:53.074Z,7.43
2023-01-31T00:18:42.550Z,6.37
2023-01-31T00:21:32.376Z,7.57
2023-01-31T00:24:21.159Z,6.60
2023-01-31T00:27:09.795Z,7.13
2023-01-31T00:29:58.630Z,7.00
2023-01-31T00:32:48.678Z,6.70
2023-01-31T00:35:40.252Z,7.33
2023-01-31T00:38:28.943Z,7.00
2023-01-31T00:41:17.734Z,6.90
2023-01-31T00:44:07.606Z,6.23
2023-01-31T00:46:56.683Z,6.40
2023-01-31T00:49:46.787Z,6.67
2023-01-31T00:52:36.069Z,6.33
2023-01-31T00:55:24.783Z,6.80
2023-01-31T00:58:13.509Z,6.87
2023-01-31T01:01:12.623Z,7.10
2023-01-31T01:04:01.637Z,6.80
2023-01-31T01:06:56.101Z,6.07
2023-01-31T01:09:44.797Z,6.20
2023-01-31T01:12:34.738Z,6.10
2023-01-31T01:15:23.594Z,6.30
2023-01-31T01:18:12.262Z,6.57
2023-01-31T01:21:07.261Z,5.67
2023-01-31T01:24:00.254Z,5.80
2023-01-31T01:26:49.062Z,6.20
2023-01-31T01:29:38.101Z,6.53
2023-01-31T01:32:27.248Z,6.03
2023-01-31T01:35:16.184Z,6.20
2023-01-31T01:38:04.946Z,5.57
2023-01-31T01:40:55.754Z,6.07
2023-01-31T01:43:46.358Z,6.07
2023-01-31T01:46:38.430Z,6.07
2023-01-31T01:49:33.353Z,6.47
2023-01-31T01:52:24.367Z,6.03
2023-01-31T01:55:19.876Z,6.13
2023-01-31T01:58:12.972Z,6.27
2023-01-31T02:01:06.808Z,5.73
2023-01-31T02:03:55.502Z,6.70
2023-01-31T02:06:45.102Z,5.73
2023-01-31T02:09:40.623Z,6.50
2023-01-31T02:12:30.219Z,6.87
2023-01-31T02:15:21.031Z,6.90
2023-01-31T02:18:10.931Z,5.70
2023-01-31T02:21:29.977Z,5.77
2023-01-31T02:24:53.031Z,5.27
2023-01-31T02:28:05.799Z,5.50
2023-01-31T02:31:33.420Z,5.90
2023-01-31T02:34:33.324Z,5.00
2023-01-31T02:37:31.169Z,5.60
2023-01-31T02:40:26.551Z,5.70
2023-01-31T02:43:21.441Z,5.53
2023-01-31T02:46:15.041Z,5.37
2023-01-31T02:49:09.352Z,4.90
2023-01-31T02:52:13.998Z,4.70
2023-01-31T02:55:28.957Z,5.50
2023-01-31T02:58:20.847Z,4.13
2023-01-31T03:01:15.379Z,5.10
2023-01-31T03:04:06.610Z,4.57
2023-01-31T03:07:04.016Z,4.37
2023-01-31T03:10:05.933Z,4.37
2023-01-31T03:13:08.250Z,4.87
2023-01-31T03:16:21.657Z,4.90
2023-01-31T03:19:17.534Z,4.10
2023-01-31T03:22:16.477Z,4.47
2023-01-31T03:25:09.145Z,4.40
2023-01-31T03:28:02.286Z,4.17
2023-01-31T03:31:01.189Z,4.67
2023-01-31T03:33:55.631Z,4.03
2023-01-31T03:36:52.165Z,4.50
2023-01-31T03:40:04.681Z,3.90
2023-01-31T03:42:59.359Z,4.30
2023-01-31T03:45:53.048Z,3.53
2023-01-31T03:48:47.781Z,4.27
2023-01-31T03:51:39.160Z,3.70
2023-01-31T03:54:32.665Z,3.53
2023-01-31T03:57:26.913Z,3.67
2023-01-31T04:00:18.398Z,4.33
2023-01-31T04:03:19.734Z,4.33
2023-01-31T04:06:09.346Z,3.90
2023-01-31T04:08:58.142Z,3.67
2023-01-31T04:11:50.603Z,6.53
2023-01-31T04:14:40.869Z,4.10
2023-01-31T04:17:30.104Z,4.00
2023-01-31T04:20:19.523Z,4.10
2023-01-31T04:23:08.208Z,3.77
2023-01-31T04:25:56.929Z,4.07
2023-01-31T04:28:45.956Z,3.43
2023-01-31T04:31:36.701Z,3.77
2023-01-31T04:34:25.426Z,3.23
2023-01-31T04:37:14.246Z,3.47
2023-01-31T04:40:03.096Z,3.50
2023-01-31T04:42:51.955Z,4.30
2023-01-31T04:45:40.768Z,4.50
2023-01-31T04:48:31.788Z,3.17
2023-01-31T04:51:20.595Z,3.20
2023-01-31T04:54:09.384Z,2.90
2023-01-31T04:56:58.069Z,3.10
2023-01-31T04:59:46.989Z,4.53
2023-01-31T05:02:36.287Z,3.73
2023-01-31T05:05:26.773Z,3.87
2023-01-31T05:08:15.459Z,3.00
2023-01-31T05:11:07.558Z,3.30
2023-01-31T05:13:56.297Z,4.30
2023-01-31T05:16:47.342Z,3.33
2023-01-31T05:19:36.188Z,3.57
2023-01-31T05:22:26.290Z,3.07
2023-01-31T05:25:14.950Z,3.20
2023-01-31T05:28:04.422Z,3.00
2023-01-31T05:30:53.561Z,2.83
2023-01-31T05:33:43.116Z,4.03
2023-01-31T05:36:32.316Z,3.47
2023-01-31T05:39:22.581Z,3.00
2023-01-31T05:42:11.451Z,2.63
2023-01-31T05:45:00.242Z,2.90
2023-01-31T05:47:49.085Z,3.07
2023-01-31T05:50:37.932Z,3.10
2023-01-31T05:53:35.486Z,3.20
2023-01-31T05:56:25.753Z,3.00
2023-01-31T05:59:14.421Z,3.33
2023-01-31T06:02:03.236Z,3.13
2023-01-31T06:04:51.860Z,3.93
2023-01-31T06:07:40.917Z,3.13
2023-01-31T06:10:30.066Z,3.47
2023-01-31T06:13:20.125Z,3.90
2023-01-31T06:16:09.152Z,2.93
2023-01-31T06:18:57.890Z,2.87
2023-01-31T06:21:46.556Z,2.87
2023-01-31T06:24:35.318Z,3.30
2023-01-31T06:27:23.995Z,3.53
2023-01-31T06:30:14.981Z,3.17
2023-01-31T06:33:04.027Z,3.30
2023-01-31T06:35:52.666Z,3.40
2023-01-31T06:38:41.371Z,3.40
2023-01-31T06:41:30.529Z,2.93
2023-01-31T06:44:19.301Z,2.90
2023-01-31T06:47:09.339Z,3.03
2023-01-31T06:49:58.133Z,3.30
2023-01-31T06:52:46.978Z,3.30
2023-01-31T06:55:35.653Z,3.37
2023-01-31T06:58:24.534Z,3.23
2023-01-31T07:01:14.882Z,3.47
2023-01-31T07:04:05.312Z,3.40
2023-01-31T07:06:54.072Z,3.20
2023-01-31T07:09:42.824Z,3.60
2023-01-31T07:12:31.720Z,3.20
2023-01-31T07:15:21.010Z,3.03
2023-01-31T07:18:13.339Z,2.73
2023-01-31T07:21:03.469Z,3.40
2023-01-31T07:23:52.197Z,3.27
2023-01-31T07:26:40.848Z,3.70
2023-01-31T07:29:30.071Z,3.40
2023-01-31T07:32:18.739Z,2.80
2023-01-31T07:35:08.616Z,3.10
2023-01-31T07:37:58.983Z,3.20
2023-01-31T07:40:47.712Z,3.17
2023-01-31T07:43:36.522Z,3.27
2023-01-31T07:46:25.351Z,2.80
2023-01-31T07:49:14.657Z,3.50
2023-01-31T07:52:03.468Z,3.20
2023-01-31T07:54:53.578Z,3.10
2023-01-31T07:57:42.528Z,3.67
2023-01-31T08:00:45.374Z,3.00
2023-01-31T08:03:34.610Z,3.33
2023-01-31T08:06:23.521Z,3.20
2023-01-31T08:09:13.617Z,3.40
2023-01-31T08:12:03.780Z,2.90
2023-01-31T08:14:52.491Z,4.03
2023-01-31T08:17:41.203Z,2.93
2023-01-31T08:20:30.621Z,3.50
2023-01-31T08:23:19.437Z,3.50
2023-01-31T08:26:10.656Z,3.40
2023-01-31T08:29:01.159Z,3.37
2023-01-31T08:31:51.819Z,3.03
2023-01-31T08:34:40.930Z,3.40
2023-01-31T08:37:30.502Z,3.30
2023-01-31T08:40:19.758Z,3.60
2023-01-31T08:43:08.438Z,3.73
2023-01-31T08:45:58.514Z,3.27
2023-01-31T08:48:47.577Z,2.97
2023-01-31T08:51:36.448Z,3.33
2023-01-31T08:54:25.272Z,3.20
2023-01-31T08:57:14.064Z,3.00
2023-01-31T09:00:03.231Z,3.20
2023-01-31T09:02:57.333Z,3.23
2023-01-31T09:05:46.771Z,3.43
2023-01-31T09:08:35.727Z,3.77
2023-01-31T09:11:24.512Z,3.63
2023-01-31T09:14:13.254Z,3.20
2023-01-31T09:17:03.634Z,3.27
2023-01-31T09:19:53.785Z,3.27
2023-01-31T09:22:42.515Z,3.23
2023-01-31T09:25:44.897Z,3.17
2023-01-31T09:28:35.637Z,3.20
2023-01-31T09:31:24.519Z,3.00
2023-01-31T09:34:13.996Z,3.40
2023-01-31T09:37:04.176Z,3.70
2023-01-31T09:39:52.844Z,3.53
2023-01-31T09:42:44.959Z,2.63
2023-01-31T09:45:35.172Z,2.73
2023-01-31T09:48:29.879Z,3.10
2023-01-31T09:51:19.913Z,2.50
2023-01-31T09:54:28.681Z,2.90
2023-01-31T09:57:28.462Z,2.70
2023-01-31T10:00:25.735Z,2.97
2023-01-31T10:03:40.669Z,3.47
2023-01-31T10:06:35.286Z,2.77
2023-01-31T10:09:33.229Z,2.47
2023-01-31T10:12:25.696Z,3.23
2023-01-31T10:15:19.049Z,3.10
2023-01-31T10:18:12.007Z,2.70
2023-01-31T10:21:05.472Z,2.70
2023-01-31T10:23:58.191Z,4.17
2023-01-31T10:26:52.224Z,3.23
2023-01-31T10:29:45.378Z,3.73
2023-01-31T10:32:39.231Z,3.47
2023-01-31T10:35:33.117Z,2.83
2023-01-31T10:38:27.792Z,2.60
2023-01-31T10:41:23.112Z,3.10
2023-01-31T10:44:24.162Z,3.40
2023-01-31T10:47:16.109Z,3.30
2023-01-31T10:50:15.981Z,3.53
2023-01-31T10:53:21.448Z,4.70
2023-01-31T10:56:13.878Z,8.97
2023-01-31T10:59:09.794Z,3.23
2023-01-31T11:02:02.174Z,2.40
2023-01-31T11:04:52.758Z,2.57
2023-01-31T11:07:41.706Z,2.50
2023-01-31T11:10:32.418Z,2.23
2023-01-31T11:13:22.589Z,2.67
2023-01-31T11:16:14.035Z,2.87
2023-01-31T11:19:14.398Z,2.93
2023-01-31T11:22:04.668Z,2.70
2023-01-31T11:24:55.162Z,2.63
2023-01-31T11:27:45.138Z,2.30
2023-01-31T11:30:37.499Z,3.13
2023-01-31T11:33:40.260Z,2.83
2023-01-31T11:36:34.593Z,2.67
2023-01-31T11:39:28.672Z,2.43
2023-01-31T11:42:18.678Z,2.43
2023-01-31T11:45:19.309Z,2.83
2023-01-31T11:48:12.301Z,2.80
2023-01-31T11:51:03.816Z,3.03
2023-01-31T11:53:54.578Z,5.03
2023-01-31T11:56:46.299Z,4.27
2023-01-31T11:59:36.345Z,4.10
2023-01-31T12:02:32.402Z,3.23
2023-01-31T12:05:21.344Z,3.10
2023-01-31T12:08:32.571Z,4.80
2023-01-31T12:11:30.180Z,3.80
2023-01-31T12:14:20.774Z,3.40
2023-01-31T12:17:15.131Z,2.60
2023-01-31T12:20:28.390Z,2.70
2023-01-31T12:23:31.736Z,3.17
2023-01-31T12:26:32.695Z,3.70
2023-01-31T12:29:45.474Z,4.33
2023-01-31T12:32:45.691Z,3.80
2023-01-31T12:35:46.092Z,3.87
2023-01-31T12:38:50.599Z,4.10
2023-01-31T12:41:42.008Z,4.60
2023-01-31T12:44:44.036Z,4.10
2023-01-31T12:47:48.370Z,5.40
2023-01-31T12:50:44.112Z,4.20
2023-01-31T12:53:51.324Z,4.17
2023-01-31T12:56:55.288Z,4.47
2023-01-31T12:59:52.201Z,4.37
2023-01-31T13:03:01.341Z,4.07
2023-01-31T13:05:57.069Z,3.70
2023-01-31T13:09:06.915Z,3.13
2023-01-31T13:12:02.136Z,2.97
2023-01-31T13:14:59.363Z,4.10
2023-01-31T13:17:54.636Z,3.30
2023-01-31T13:20:47.952Z,3.37
2023-01-31T13:23:45.446Z,4.20
2023-01-31T13:26:39.355Z,4.23
2023-01-31T13:29:35.687Z,4.07
2023-01-31T13:32:31.809Z,3.50
2023-01-31T13:35:26.010Z,3.87
2023-01-31T13:38:19.064Z,3.57
2023-01-31T13:41:11.311Z,3.07
2023-01-31T13:44:01.617Z,3.90
2023-01-31T13:46:55.058Z,3.67
2023-01-31T13:49:48.971Z,3.63
2023-01-31T13:52:42.823Z,3.47
2023-01-31T13:55:37.810Z,3.60
2023-01-31T13:58:30.216Z,4.83
2023-01-31T14:01:25.478Z,4.60
2023-01-31T14:04:39.130Z,4.60
2023-01-31T14:07:29.621Z,4.70
2023-01-31T14:10:30.345Z,4.60
2023-01-31T14:13:41.191Z,4.70
2023-01-31T14:16:43.193Z,5.07
2023-01-31T14:20:14.745Z,5.80
2023-01-31T14:23:32.122Z,4.13
2023-01-31T14:26:35.651Z,4.30
2023-01-31T14:29:26.837Z,5.30
2023-01-31T14:32:17.075Z,4.03
2023-01-31T14:35:24.453Z,5.07
2023-01-31T14:38:21.619Z,4.43
2023-01-31T14:41:18.754Z,5.57
2023-01-31T14:44:21.012Z,4.93
2023-01-31T14:47:25.827Z,6.00
2023-01-31T14:50:54.950Z,5.00
2023-01-31T14:54:14.015Z,5.10
2023-01-31T14:57:17.763Z,5.47
2023-01-31T15:00:17.613Z,6.10
2023-01-31T15:03:09.306Z,5.93
2023-01-31T15:06:11.623Z,6.10
2023-01-31T15:09:29.254Z,5.53
2023-01-31T15:12:54.844Z,9.63
2023-01-31T15:15:49.439Z,5.23
2023-01-31T15:18:38.687Z,5.10
2023-01-31T15:21:32.053Z,5.03
2023-01-31T15:24:25.537Z,5.60
2023-01-31T15:27:18.721Z,5.80
2023-01-31T15:30:14.702Z,7.53
2023-01-31T15:33:09.558Z,6.73
2023-01-31T15:36:02.730Z,6.60
2023-01-31T15:38:56.901Z,7.70
2023-01-31T15:41:46.055Z,6.97
2023-01-31T15:44:34.831Z,6.07
2023-01-31T15:47:24.733Z,6.37
2023-01-31T15:50:18.465Z,6.40
2023-01-31T15:53:14.955Z,6.87
2023-01-31T15:56:07.996Z,7.50
2023-01-31T15:58:59.116Z,6.90
2023-01-31T16:01:49.772Z,6.63
2023-01-31T16:04:41.651Z,8.53
2023-01-31T16:07:31.925Z,8.20
2023-01-31T16:10:20.973Z,7.80
2023-01-31T16:13:11.184Z,8.57
2023-01-31T16:16:00.112Z,8.80
2023-01-31T16:18:52.360Z,7.40
2023-01-31T16:21:45.247Z,7.47
2023-01-31T16:24:33.989Z,6.83
2023-01-31T16:27:25.978Z,8.03
2023-01-31T16:30:18.682Z,8.80
2023-01-31T16:33:07.494Z,7.33
2023-01-31T16:36:14.244Z,7.63
2023-01-31T16:39:07.173Z,7.30
2023-01-31T16:41:58.390Z,6.73
2023-01-31T16:44:48.371Z,6.73
2023-01-31T16:47:51.420Z,6.53
2023-01-31T16:50:43.584Z,6.67
2023-01-31T16:53:34.816Z,6.87
2023-01-31T16:56:24.459Z,8.03
2023-01-31T16:59:45.716Z,7.10
2023-01-31T17:02:40.896Z,7.00
2023-01-31T17:05:41.172Z,7.93
2023-01-31T17:08:30.135Z,7.60
2023-01-31T17:11:40.862Z,7.03
2023-01-31T17:14:30.091Z,7.67
2023-01-31T17:17:22.235Z,8.23
2023-01-31T17:20:14.500Z,8.07
2023-01-31T17:23:04.793Z,7.30
2023-01-31T17:25:53.593Z,7.40
2023-01-31T17:28:44.571Z,7.47
2023-01-31T17:31:35.829Z,7.67
2023-01-31T17:34:24.620Z,7.13
2023-01-31T17:37:16.110Z,7.20
2023-01-31T17:40:07.421Z,7.80
2023-01-31T17:42:59.961Z,7.87
2023-01-31T17:45:48.748Z,7.10
2023-01-31T17:48:37.447Z,7.60
2023-01-31T17:51:26.289Z,7.87
2023-01-31T17:54:15.076Z,7.40
2023-01-31T17:57:05.336Z,7.20
2023-01-31T17:59:54.030Z,7.43
2023-01-31T18:02:43.050Z,7.00
2023-01-31T18:05:39.310Z,9.73
2023-01-31T18:08:28.621Z,6.97
2023-01-31T18:11:18.946Z,8.20
2023-01-31T18:14:09.094Z,7.07
2023-01-31T18:16:57.964Z,7.77
2023-01-31T18:19:46.694Z,7.93
2023-01-31T18:22:35.428Z,8.97
2023-01-31T18:25:24.314Z,8.03
2023-01-31T18:28:13.156Z,7.73
2023-01-31T18:31:10.553Z,8.27
2023-01-31T18:33:59.991Z,8.90
2023-01-31T18:36:48.750Z,7.50
2023-01-31T18:39:37.579Z,7.90
2023-01-31T18:42:26.404Z,7.80
2023-01-31T18:45:15.241Z,7.70
2023-01-31T18:48:05.451Z,8.63
2023-01-31T18:50:54.117Z,8.10
2023-01-31T18:53:44.814Z,8.43
2023-01-31T18:56:33.553Z,8.20
2023-01-31T18:59:22.476Z,8.60
2023-01-31T19:02:11.898Z,9.17
2023-01-31T19:05:02.958Z,8.90
2023-01-31T19:07:51.792Z,9.77
2023-01-31T19:10:40.749Z,8.73
2023-01-31T19:13:29.962Z,9.23
2023-01-31T19:16:20.922Z,9.47
2023-01-31T19:19:10.607Z,9.53
2023-01-31T19:22:01.729Z,10.47
2023-01-31T19:24:50.492Z,11.37
2023-01-31T19:27:41.265Z,9.90
2023-01-31T19:30:30.142Z,10.57
2023-01-31T19:33:19.675Z,10.60
2023-01-31T19:36:12.180Z,9.63
2023-01-31T19:39:04.588Z,9.83
2023-01-31T19:41:53.392Z,10.07
2023-01-31T19:44:42.210Z,10.20
2023-01-31T19:47:31.223Z,10.03
2023-01-31T19:50:20.840Z,9.37
2023-01-31T19:53:09.827Z,10.23
2023-01-31T19:56:00.096Z,9.37
2023-01-31T19:58:48.986Z,9.27
2023-01-31T20:01:37.907Z,8.87
2023-01-31T20:04:26.708Z,9.30
2023-01-31T20:07:42.738Z,9.03
2023-01-31T20:10:32.244Z,8.93
2023-01-31T20:13:22.450Z,8.83
2023-01-31T20:16:12.765Z,8.97
2023-01-31T20:19:03.886Z,8.70
2023-01-31T20:21:52.689Z,8.80
2023-01-31T20:24:41.449Z,9.40
2023-01-31T20:27:33.748Z,9.07
2023-01-31T20:30:24.409Z,8.47
2023-01-31T20:33:13.469Z,8.80
2023-01-31T20:36:02.647Z,9.07
2023-01-31T20:38:51.487Z,9.43
2023-01-31T20:41:40.669Z,9.37
2023-01-31T20:44:30.053Z,9.47
2023-01-31T20:47:21.069Z,9.43
2023-01-31T20:50:11.124Z,9.20
2023-01-31T20:53:00.121Z,8.97
2023-01-31T20:55:55.916Z,8.47
2023-01-31T20:58:45.555Z,8.10
2023-01-31T21:01:34.393Z,8.00
2023-01-31T21:04:24.594Z,7.33
2023-01-31T21:07:13.569Z,7.47
2023-01-31T21:10:02.562Z,8.50
2023-01-31T21:12:51.794Z,8.10
2023-01-31T21:15:40.926Z,7.93
2023-01-31T21:18:31.658Z,8.03
2023-01-31T21:21:24.003Z,7.80
2023-01-31T21:24:13.092Z,8.13
2023-01-31T21:27:02.047Z,7.87
2023-01-31T21:29:50.823Z,7.70
2023-01-31T21:32:39.519Z,8.07
2023-01-31T21:35:28.502Z,8.40
2023-01-31T21:38:18.871Z,8.70
2023-01-31T21:41:25.368Z,7.70
2023-01-31T21:44:14.532Z,7.67
2023-01-31T21:47:03.278Z,8.27
2023-01-31T21:49:51.957Z,8.37
2023-01-31T21:52:40.674Z,8.50
2023-01-31T21:55:31.275Z,8.50
2023-01-31T21:58:23.639Z,8.20
2023-01-31T22:01:14.542Z,8.07
2023-01-31T22:04:04.123Z,8.13
2023-01-31T22:06:53.637Z,7.87
2023-01-31T22:09:42.307Z,7.60
2023-01-31T22:12:32.637Z,6.93
2023-01-31T22:15:21.343Z,7.70
2023-01-31T22:18:10.001Z,7.33
2023-01-31T22:21:06.033Z,6.77
2023-01-31T22:23:56.167Z,6.90
2023-01-31T22:26:45.943Z,6.73
2023-01-31T22:29:35.954Z,7.50
2023-01-31T22:32:24.595Z,7.40
2023-01-31T22:35:13.255Z,6.87
2023-01-31T22:38:02.357Z,6.77
2023-01-31T22:40:51.108Z,6.90
2023-01-31T22:43:40.844Z,7.17
2023-01-31T22:46:31.289Z,7.13
2023-01-31T22:49:20.205Z,7.40
2023-01-31T22:52:09.366Z,6.63
2023-01-31T22:54:58.151Z,6.93
2023-01-31T22:57:48.019Z,7.30
2023-01-31T23:00:38.559Z,6.87
2023-01-31T23:03:29.403Z,7.77
2023-01-31T23:06:19.156Z,7.87
2023-01-31T23:09:07.937Z,8.00
2023-01-31T23:11:56.601Z,8.07
2023-01-31T23:14:45.977Z,8.67
2023-01-31T23:17:44.534Z,7.93
2023-01-31T23:20:35.064Z,9.17
2023-01-31T23:23:23.882Z,9.37
2023-01-31T23:26:13.040Z,8.53
2023-01-31T23:29:02.008Z,9.20
2023-01-31T23:31:51.016Z,9.30
2023-01-31T23:34:39.824Z,9.77
2023-01-31T23:37:30.193Z,9.23
2023-01-31T23:40:19.253Z,10.20
2023-01-31T23:43:08.193Z,10.50
2023-01-31T23:45:56.979Z,9.40
2023-01-31T23:48:45.631Z,9.23
2023-01-31T23:51:34.740Z,8.80
2023-01-31T23:54:25.139Z,8.53
2023-01-31T23:57:17.536Z,8.20
